Antelope, Texas
Current Conditions -  °F | °C
As of 9:10 AM on Friday 24 Oct 2014 (Local Time) from KRPH Reporting Station
Clear Clear  
Wind Chill: 67°   Ceiling: Unl
Heat Index: 67°   Visibility: 10mi
Dew Point: 61°   Wind: 6mph
Humidity: 81%   Direction: 170°S
Pressure: 30.13"   Gusts: NA
Location:  33.4259°N, 98.383°W
Report Text: KRPH 241410Z AUTO 17005KT 10SM CLR 20/16 A3013 RMK AO2 T01960162
Loading
Personal Weather Stations






























Interactive Weather Map
Tropical Storm Tracking
New forecast layout! Learn more

10-Day Weather Forecast

Advertisements
Track Severe Weather on mobile